Погода Випсовона 2 недели

Варминско-Мазурское воеводство, Польша

15 - 28 июля
  • 15июля
    Сегодня
    +17°
    +27°
    Практически безоблачно
    ВремяПогодаТемператураВлажностьДавлениеВетер, м/сВероятность осадков
    02:00Облачно с прояснениями+17°C77 %747 мм1.9 м/с2 %
    05:00Облачно с прояснениями+16°C84 %747 мм1.8 м/с2 %
    08:00Практически безоблачно+20°C70 %748 мм2.1 м/с5 %
    11:00Пасмурно, дожди с грозами+19°C84 %748 мм4.4 м/с22 %
    14:00Практически безоблачно+25°C64 %748 мм1.3 м/с28 %
    17:00Практически безоблачно+26°C58 %747 мм0.5 м/с8 %
    20:00Ясно и безоблачно+24°C73 %747 мм1.0 м/с2 %
    23:00Облачно с прояснениями+19°C84 %747 мм1.7 м/с2 %
  • 16июля
    Вторник
    +18°
    +32°
    Облачно с прояснениями
    ВремяПогодаТемператураВлажностьДавлениеВетер, м/сВероятность осадков
    02:00Ясно и безоблачно+18°C86 %747 мм2.0 м/с2 %
    05:00Ясно и безоблачно+17°C87 %747 мм2.5 м/с2 %
    08:00Ясно и безоблачно+23°C67 %747 мм2.5 м/с2 %
    11:00Ясно и безоблачно+27°C50 %746 мм4.0 м/с2 %
    14:00Облачно с прояснениями+29°C43 %745 мм4.3 м/с2 %
    17:00Облачно с прояснениями+31°C40 %744 мм4.0 м/с11 %
    20:00Облачно с прояснениями, ливень+25°C78 %744 мм3.6 м/с65 %
    23:00Пасмурно, дожди с грозами+20°C97 %744 мм2.3 м/с47 %
  • 17июля
    Среда
    +15°
    +27°
    Ясно и безоблачно
    ВремяПогодаТемператураВлажностьДавлениеВетер, м/сВероятность осадков
    02:00Облачно с прояснениями+20°C97 %744 мм3.6 м/с49 %
    05:00Пасмурно, сплошная облачность+19°C97 %745 мм3.7 м/с11 %
    08:00Практически безоблачно+20°C86 %747 мм4.0 м/с24 %
    11:00Практически безоблачно+24°C59 %748 мм4.1 м/с15 %
    14:00Ясно и безоблачно+26°C48 %749 мм4.9 м/с4 %
    17:00Облачно с прояснениями+26°C47 %749 мм5.0 м/с5 %
    20:00Практически безоблачно+23°C58 %749 мм3.1 м/с3 %
    23:00Ясно и безоблачно+18°C77 %750 мм1.7 м/с2 %
  • 18июля
    Четверг
    +13°
    +25°
    Практически безоблачно
    ВремяПогодаТемператураВлажностьДавлениеВетер, м/сВероятность осадков
    02:00Ясно и безоблачно+16°C83 %750 мм2.5 м/с2 %
    05:00Ясно и безоблачно+15°C91 %751 мм2.3 м/с2 %
    08:00Ясно и безоблачно+19°C70 %751 мм3.1 м/с2 %
    11:00Ясно и безоблачно+22°C58 %752 мм4.3 м/с6 %
    14:00Практически безоблачно+23°C49 %751 мм4.2 м/с13 %
    17:00Облачно с прояснениями+24°C46 %751 мм3.6 м/с6 %
    20:00Облачно с прояснениями+22°C62 %751 мм2.1 м/с3 %
    23:00Облачно с прояснениями+16°C80 %752 мм2.3 м/с2 %
  • 19июля
    Пятница
    +12°
    +25°
    Ясно и безоблачно
    ВремяПогодаТемператураВлажностьДавлениеВетер, м/сВероятность осадков
    02:00Небольшая облачность+15°C86 %751 мм1.6 м/с2 %
    05:00Ясно и безоблачно+14°C88 %751 мм2.3 м/с2 %
    08:00Ясно и безоблачно+17°C71 %751 мм3.1 м/с2 %
    11:00Ясно и безоблачно+21°C55 %751 мм4.2 м/с8 %
    14:00Ясно и безоблачно+22°C49 %751 мм4.7 м/с8 %
    17:00Ясно и безоблачно+23°C43 %750 мм5.0 м/с7 %
    20:00Ясно и безоблачно+21°C61 %749 мм2.6 м/с2 %
    23:00Ясно и безоблачно+15°C81 %749 мм1.6 м/с2 %
Мы используем cookies
Соглашаюсь